Time;durP1;ratioP1;P1;durP2;ratioP2;P2;SDS_P1;SDS_P2;PMS_P1;PMS_P2;Temp;Humidity;BMP_temperature;BMP_pressure;BME280_temperature;BME280_humidity;BME280_pressure;Samples;Min_cycle;Max_cycle;Signal;HPM_P1;HPM_P2
2020/12/16 00:00:09;;;;;;;11.88;7.42;;;;;;;8.31;51.33;101659.12;1775020;79;21645;-79
2020/12/16 00:02:38;;;;;;;13.15;7.65;;;;;;;8.29;51.26;101655.25;1817045;79;21360;-79
2020/12/16 00:05:08;;;;;;;15.03;8.78;;;;;;;8.29;51.25;101663.74;1817244;79;21215;-80
2020/12/16 00:07:37;;;;;;;13.48;7.92;;;;;;;8.25;51.35;101664.45;1817013;79;21171;-80
2020/12/16 00:10:08;;;;;;;9.38;6.20;;;;;;;8.21;51.30;101660.78;1793360;80;21159;-81
2020/12/16 00:12:42;;;;;;;9.58;6.10;;;;;;;8.20;51.23;101663.09;1808040;79;21195;-83
2020/12/16 00:15:10;;;;;;;11.25;6.83;;;;;;;8.19;51.27;101665.39;1807912;79;21207;-80
2020/12/16 00:17:39;;;;;;;10.32;7.00;;;;;;;8.20;51.34;101671.09;1816849;79;21489;-80
2020/12/16 00:20:07;;;;;;;12.75;7.53;;;;;;;8.22;51.26;101669.16;1816993;79;21206;-81
2020/12/16 00:22:39;;;;;;;9.60;6.55;;;;;;;8.24;51.21;101675.25;1812583;79;21169;-80
2020/12/16 00:25:09;;;;;;;7.90;5.97;;;;;;;8.25;51.25;101673.79;1811853;79;21186;-81
2020/12/16 00:27:37;;;;;;;10.45;6.75;;;;;;;8.25;51.17;101671.13;1791254;80;21202;-80
2020/12/16 00:30:08;;;;;;;9.03;6.45;;;;;;;8.24;51.15;101675.25;1803358;79;21174;-81
2020/12/16 00:32:38;;;;;;;8.60;6.03;;;;;;;8.20;51.20;101669.77;1791199;80;21149;-81
2020/12/16 00:35:08;;;;;;;10.48;6.22;;;;;;;8.16;51.22;101678.47;1803266;79;21683;-81
2020/12/16 00:37:38;;;;;;;8.98;6.20;;;;;;;8.10;51.30;101673.59;1790984;80;21184;-80
2020/12/16 00:40:07;;;;;;;9.53;6.85;;;;;;;8.11;51.33;101672.62;1803505;79;21431;-80
2020/12/16 00:42:36;;;;;;;10.50;7.08;;;;;;;8.12;51.38;101674.32;1791101;80;21164;-81
2020/12/16 00:45:05;;;;;;;8.15;5.28;;;;;;;8.12;51.43;101670.31;1823521;78;21054;-79
2020/12/16 00:47:35;;;;;;;9.35;6.12;;;;;;;8.13;51.50;101667.55;1791279;80;21157;-81
2020/12/16 00:50:07;;;;;;;9.13;6.03;;;;;;;8.18;51.48;101673.05;1823598;78;21149;-79
2020/12/16 00:52:38;;;;;;;9.78;6.30;;;;;;;8.20;51.41;101673.28;1787184;80;21424;-79
2020/12/16 00:55:09;;;;;;;9.60;6.58;;;;;;;8.21;51.32;101671.45;1802017;79;21198;-78
2020/12/16 00:57:37;;;;;;;10.43;6.60;;;;;;;8.20;51.26;101673.77;1790535;80;21172;-78
2020/12/16 01:00:08;;;;;;;11.03;6.60;;;;;;;8.20;51.22;101667.94;1823031;78;21536;-77
2020/12/16 01:02:42;;;;;;;8.68;5.78;;;;;;;8.19;51.22;101666.25;1790732;80;21183;-78
2020/12/16 01:05:14;;;;;;;8.50;5.47;;;;;;;8.20;51.14;101664.42;1823181;78;21372;-79
2020/12/16 01:07:43;;;;;;;9.18;6.33;;;;;;;8.19;51.08;101666.73;1791103;80;21192;-78
2020/12/16 01:10:13;;;;;;;10.10;6.33;;;;;;;8.19;51.10;101668.06;1793790;78;21448;-78
2020/12/16 01:12:42;;;;;;;10.08;6.28;;;;;;;8.16;51.14;101670.46;1790956;80;21147;-80
2020/12/16 01:15:18;;;;;;;10.90;6.25;;;;;;;8.17;51.12;101671.31;1788552;79;21432;-76
2020/12/16 01:17:48;;;;;;;;;;;;;;;8.15;51.04;101668.77;1786983;80;22165;-78
2020/12/16 01:20:18;;;;;;;8.88;6.17;;;;;;;8.14;51.04;101672.41;1783996;79;20238;-77
2020/12/16 01:22:47;;;;;;;10.05;6.28;;;;;;;8.09;51.08;101670.08;1808339;79;21156;-77
2020/12/16 01:25:16;;;;;;;9.05;5.92;;;;;;;8.08;51.10;101668.83;1780629;79;21057;-77
2020/12/16 01:27:44;;;;;;;12.13;7.87;;;;;;;8.09;51.19;101674.08;1797794;79;21177;-76
2020/12/16 01:30:13;;;;;;;14.00;9.20;;;;;;;8.11;51.22;101678.81;1809228;79;22485;-76
2020/12/16 01:32:41;;;;;;;12.07;7.83;;;;;;;8.12;51.26;101680.50;1814678;79;21628;-79
2020/12/16 01:35:10;;;;;;;12.20;7.70;;;;;;;8.15;51.23;101680.77;1812140;79;21130;-77
2020/12/16 01:37:39;;;;;;;7.80;6.15;;;;;;;8.24;51.05;101675.25;1813806;79;21189;-78
2020/12/16 01:40:09;;;;;;;9.50;6.47;;;;;;;8.25;50.95;101672.94;1791642;80;21526;-79
2020/12/16 01:42:41;;;;;;;8.55;6.15;;;;;;;8.25;50.90;101677.80;1805904;79;21268;-78
2020/12/16 01:45:15;;;;;;;8.78;6.50;;;;;;;8.26;50.77;101674.63;1789900;80;21187;-78
2020/12/16 01:47:44;;;;;;;8.43;5.55;;;;;;;8.25;50.78;101671.60;1800912;79;21178;-78
2020/12/16 01:50:14;;;;;;;6.55;4.58;;;;;;;8.25;50.56;101675.61;1786279;80;21582;-79
2020/12/16 01:52:42;;;;;;;8.23;5.40;;;;;;;8.17;50.33;101672.16;1800893;79;21166;-79
2020/12/16 01:55:12;;;;;;;10.45;6.42;;;;;;;8.12;50.35;101670.31;1786398;80;21130;-78
2020/12/16 01:57:45;;;;;;;9.55;6.37;;;;;;;8.06;50.59;101678.78;1798643;79;21149;-78
2020/12/16 02:00:15;;;;;;;8.10;5.50;;;;;;;8.03;50.75;101674.99;1767282;81;21665;-78
2020/12/16 02:02:49;;;;;;;8.98;6.20;;;;;;;8.03;50.94;101681.18;1768076;81;21618;-78
2020/12/16 02:05:20;;;;;;;8.05;6.30;;;;;;;8.05;51.01;101672.59;1791772;79;21124;-78
2020/12/16 02:07:51;;;;;;;10.13;6.70;;;;;;;8.08;50.95;101678.17;1792174;80;21343;-79
2020/12/16 02:10:19;;;;;;;10.32;7.00;;;;;;;8.18;50.89;101681.05;1791703;80;21555;-79
2020/12/16 02:12:47;;;;;;;12.07;7.97;;;;;;;8.20;50.78;101682.62;1803117;79;21633;-79
2020/12/16 02:15:15;;;;;;;10.60;7.10;;;;;;;8.22;50.82;101681.16;1813428;79;21068;-80
2020/12/16 02:17:43;;;;;;;8.53;6.20;;;;;;;8.24;50.66;101684.59;1815639;79;21174;-80
2020/12/16 02:20:13;;;;;;;8.95;6.20;;;;;;;8.22;50.58;101686.05;1813629;79;21364;-80
2020/12/16 02:22:49;;;;;;;8.53;5.90;;;;;;;8.05;50.89;101682.42;1813711;79;21155;-81
2020/12/16 02:25:19;;;;;;;9.98;7.00;;;;;;;7.98;50.95;101679.33;1813958;79;21143;-80
2020/12/16 02:27:48;;;;;;;8.43;6.10;;;;;;;7.95;51.04;101684.91;1813877;79;21496;-79
2020/12/16 02:30:18;;;;;;;10.95;6.40;;;;;;;7.92;51.00;101677.60;1814062;79;21131;-80
2020/12/16 02:33:04;;;;;;;9.55;6.92;;;;;;;7.89;51.15;101680.84;1814052;79;21889;-80
2020/12/16 02:35:35;;;;;;;10.13;6.70;;;;;;;7.87;51.32;101679.27;1814163;79;21194;-79
2020/12/16 02:38:04;;;;;;;11.22;7.72;;;;;;;7.89;51.28;101685.33;1814125;79;21191;-79
2020/12/16 02:40:34;;;;;;;9.83;6.22;;;;;;;7.88;51.34;101683.63;1813862;79;21155;-78
2020/12/16 02:43:03;;;;;;;10.53;7.53;;;;;;;7.88;51.23;101685.81;1814005;79;21155;-80
2020/12/16 02:45:32;;;;;;;12.63;9.43;;;;;;;7.88;51.33;101687.64;1814165;79;21402;-80
2020/12/16 02:48:01;;;;;;;11.25;8.45;;;;;;;8.02;51.14;101693.31;1813817;79;21673;-79
2020/12/16 02:50:31;;;;;;;10.58;7.50;;;;;;;7.93;51.38;101696.16;1813811;79;21614;-82
2020/12/16 02:52:59;;;;;;;12.03;7.42;;;;;;;7.95;51.42;101696.03;1814223;79;21178;-80
2020/12/16 02:55:29;;;;;;;10.30;7.15;;;;;;;7.95;51.30;101699.58;1814279;79;21182;-80
2020/12/16 02:58:03;;;;;;;9.78;7.28;;;;;;;8.10;50.94;101695.80;1813697;79;21354;-79
2020/12/16 03:00:32;;;;;;;10.63;7.45;;;;;;;7.96;51.26;101700.44;1811979;79;21015;-81
2020/12/16 03:03:05;;;;;;;11.43;6.78;;;;;;;7.91;51.34;101702.09;1791412;80;21532;-80
2020/12/16 03:05:36;;;;;;;10.95;7.12;;;;;;;7.91;51.37;101700.77;1748732;79;21229;-77
2020/12/16 03:08:07;;;;;;;10.93;7.72;;;;;;;7.90;51.38;101704.37;1791420;80;21504;-79
2020/12/16 03:10:37;;;;;;;9.25;6.62;;;;;;;7.90;51.37;101701.70;1805913;79;22325;-78
2020/12/16 03:13:06;;;;;;;10.43;7.30;;;;;;;7.92;51.20;101706.47;1791260;80;21171;-79
2020/12/16 03:15:39;;;;;;;11.15;7.50;;;;;;;7.86;51.16;101704.25;1805882;79;21178;-79
2020/12/16 03:18:08;;;;;;;12.47;7.85;;;;;;;7.81;51.15;101701.03;1790926;80;21199;-78
2020/12/16 03:20:36;;;;;;;9.50;5.90;;;;;;;7.79;51.32;101700.30;1802992;79;21146;-79
2020/12/16 03:23:04;;;;;;;10.85;7.08;;;;;;;7.77;51.35;101702.23;1768404;80;21387;-79
2020/12/16 03:25:37;;;;;;;8.80;6.25;;;;;;;7.78;51.35;101699.94;1803125;79;21184;-79
2020/12/16 03:28:12;;;;;;;11.22;6.83;;;;;;;7.78;51.38;101698.60;1812710;79;21124;-79
2020/12/16 03:30:45;;;;;;;11.33;6.92;;;;;;;7.79;51.41;101690.97;1814280;79;21487;-78
2020/12/16 03:33:31;;;;;;;10.38;6.65;;;;;;;7.81;51.50;101694.36;1816415;79;21702;-80
2020/12/16 03:36:18;;;;;;;9.58;6.50;;;;;;;7.82;51.54;101701.42;1689081;84;22031;-79
2020/12/16 03:38:47;;;;;;;10.72;6.58;;;;;;;7.82;51.50;101692.09;1777709;79;21188;-79
2020/12/16 03:41:17;;;;;;;11.78;7.80;;;;;;;7.81;51.42;101689.03;1816330;79;21448;-80
2020/12/16 03:43:50;;;;;;;10.80;7.25;;;;;;;7.81;51.28;101693.91;1815797;79;21180;-80
2020/12/16 03:46:19;;;;;;;10.85;7.45;;;;;;;7.78;51.25;101685.27;1796690;79;21182;-80
2020/12/16 03:48:49;;;;;;;9.43;6.42;;;;;;;7.78;51.35;101689.27;1801384;79;21345;-80
2020/12/16 03:51:18;;;;;;;10.48;7.12;;;;;;;7.76;51.40;101687.17;1816933;79;21150;-80
2020/12/16 03:53:47;;;;;;;10.85;7.08;;;;;;;7.79;51.29;101682.97;1817013;79;21159;-82
2020/12/16 03:56:32;;;;;;;11.85;7.30;;;;;;;7.74;51.46;101683.78;1816104;79;21140;-80
2020/12/16 03:59:17;;;;;;;10.00;6.75;;;;;;;7.72;51.42;101684.35;1765490;81;21207;-78
2020/12/16 04:01:54;;;;;;;9.58;6.03;;;;;;;7.95;51.02;101679.58;1808334;77;22289;-80
2020/12/16 04:04:24;;;;;;;9.85;6.55;;;;;;;7.92;50.96;101686.45;1765142;79;21238;-79
2020/12/16 04:06:56;;;;;;;9.10;6.55;;;;;;;7.95;50.95;101686.70;1763925;81;22579;-79
2020/12/16 04:09:27;;;;;;;8.85;5.95;;;;;;;7.97;50.96;101692.80;1765095;81;21204;-80
2020/12/16 04:11:56;;;;;;;13.00;7.20;;;;;;;7.75;51.37;101683.66;1764851;81;21710;-79
2020/12/16 04:14:28;;;;;;;10.28;6.40;;;;;;;7.73;51.32;101687.41;1763449;81;21286;-78
2020/12/16 04:16:57;;;;;;;11.00;7.45;;;;;;;7.70;51.28;101691.63;1765036;81;21663;-80
2020/12/16 04:19:26;;;;;;;11.68;7.80;;;;;;;7.62;51.28;101689.01;1764278;81;22061;-78
2020/12/16 04:21:56;;;;;;;12.35;7.78;;;;;;;7.57;51.37;101689.81;1764715;81;21185;-82
2020/12/16 04:24:26;;;;;;;13.25;7.72;;;;;;;7.55;51.49;101703.75;1785195;78;21195;-79
2020/12/16 04:27:02;;;;;;;11.50;6.87;;;;;;;7.56;51.59;101704.60;1780872;80;21643;-78
2020/12/16 04:29:30;;;;;;;9.83;6.90;;;;;;;7.53;51.56;101701.66;1788135;79;21670;-79
2020/12/16 04:31:57;;;;;;;11.83;7.47;;;;;;;7.52;51.61;101710.63;1788507;80;21181;-81
2020/12/16 04:34:27;;;;;;;11.12;6.50;;;;;;;7.50;51.65;101715.23;1787743;79;21208;-79
2020/12/16 04:36:56;;;;;;;10.32;6.78;;;;;;;7.51;51.81;101713.41;1788380;80;21094;-79
2020/12/16 04:39:26;;;;;;;10.65;6.65;;;;;;;7.54;51.88;101714.51;1788448;79;21157;-80
2020/12/16 04:41:56;;;;;;;14.45;8.38;;;;;;;7.56;51.84;101722.78;1788463;80;21177;-80
2020/12/16 04:44:27;;;;;;;10.88;7.47;;;;;;;7.57;51.80;101722.30;1788319;80;21812;-80
2020/12/16 04:46:56;;;;;;;11.83;7.85;;;;;;;7.57;51.80;101717.81;1787756;79;21213;-81
2020/12/16 04:49:26;;;;;;;13.30;7.92;;;;;;;7.57;51.80;101719.63;1750735;79;21215;-79
2020/12/16 04:51:54;;;;;;;11.80;7.72;;;;;;;7.56;51.78;101720.12;1723537;81;21444;-80
2020/12/16 04:54:28;;;;;;;12.45;7.90;;;;;;;7.57;51.87;101719.15;1726536;81;21215;-79
2020/12/16 04:56:59;;;;;;;12.05;7.53;;;;;;;7.57;51.91;101727.63;1755951;81;21725;-79
2020/12/16 04:59:29;;;;;;;13.53;8.75;;;;;;;7.55;51.88;101722.42;1754711;81;21251;-79
2020/12/16 05:02:03;;;;;;;15.08;9.95;;;;;;;7.53;51.91;101721.66;1745272;81;21201;-78
2020/12/16 05:04:33;;;;;;;19.50;12.55;;;;;;;7.51;51.89;101719.59;1742964;81;21184;-78
2020/12/16 05:07:03;;;;;;;19.48;13.15;;;;;;;7.50;51.88;101725.89;1756714;81;21196;-79
2020/12/16 05:09:32;;;;;;;18.65;11.03;;;;;;;7.47;51.91;101724.77;1757103;81;21619;-79
2020/12/16 05:12:00;;;;;;;10.38;6.37;;;;;;;7.46;51.95;101724.87;1734491;81;21227;-80
2020/12/16 05:14:27;;;;;;;10.48;6.78;;;;;;;7.46;51.92;101727.06;1730009;81;21662;-78
2020/12/16 05:17:02;;;;;;;12.73;8.05;;;;;;;7.47;51.88;101732.76;1751344;81;21176;-76
2020/12/16 05:19:37;;;;;;;11.90;8.00;;;;;;;7.47;51.92;101730.58;1740827;81;21559;-77
2020/12/16 05:22:21;;;;;;;11.03;7.22;;;;;;;7.47;51.84;101728.77;1737834;81;22243;-77
2020/12/16 05:24:54;;;;;;;9.63;6.58;;;;;;;7.46;51.76;101732.39;1732501;81;21158;-77
2020/12/16 05:27:26;;;;;;;12.05;7.72;;;;;;;7.44;51.65;101739.63;1724964;83;21116;-78
2020/12/16 05:30:00;;;;;;;13.60;9.00;;;;;;;7.42;51.61;101729.56;1725297;83;21085;-78
2020/12/16 05:32:34;;;;;;;15.55;10.10;;;;;;;7.61;51.20;101728.64;1732528;81;21212;-78
2020/12/16 05:35:21;;;;;;;16.77;9.83;;;;;;;7.63;51.19;101732.55;1734621;81;22366;-79
2020/12/16 05:37:50;;;;;;;13.00;8.15;;;;;;;7.63;51.29;101725.89;1730079;81;21144;-79
2020/12/16 05:40:23;;;;;;;13.40;8.58;;;;;;;7.44;51.70;101731.63;1750394;80;21686;-79
2020/12/16 05:42:50;;;;;;;11.43;7.87;;;;;;;7.40;51.79;101735.46;1777566;78;21112;-79
2020/12/16 05:45:23;;;;;;;12.40;7.40;;;;;;;7.39;51.90;101735.09;1731927;81;21539;-77
2020/12/16 05:48:04;;;;;;;13.03;7.83;;;;;;;7.41;51.88;101735.86;1733850;82;21567;-79
2020/12/16 05:50:41;;;;;;;9.88;6.90;;;;;;;7.43;51.97;101740.59;1702693;81;21152;-79
2020/12/16 05:53:15;;;;;;;13.87;8.90;;;;;;;7.45;52.00;101741.36;1735558;79;22019;-78
2020/12/16 05:55:53;;;;;;;11.75;8.03;;;;;;;7.46;51.87;101737.72;1741121;81;21645;-78
2020/12/16 05:58:26;;;;;;;11.67;7.70;;;;;;;7.44;51.66;101744.95;1748697;79;21128;-78
2020/12/16 06:01:01;;;;;;;14.40;8.95;;;;;;;7.43;51.62;101749.92;1751900;79;21381;-79
2020/12/16 06:03:34;;;;;;;12.78;8.23;;;;;;;7.42;51.61;101750.04;1741807;81;21158;-79
2020/12/16 06:06:08;;;;;;;14.03;7.90;;;;;;;7.41;51.66;101755.85;1740044;81;21116;-78
2020/12/16 06:08:37;;;;;;;12.40;7.20;;;;;;;7.39;51.67;101757.76;1747355;79;21467;-76
2020/12/16 06:11:06;;;;;;;10.43;6.28;;;;;;;7.40;51.74;101749.27;1750027;81;21115;-77
2020/12/16 06:13:35;;;;;;;10.78;6.95;;;;;;;7.40;51.78;101755.45;1745578;79;21456;-77
2020/12/16 06:16:06;;;;;;;12.35;7.92;;;;;;;7.39;51.82;101756.42;1754285;79;21138;-77
2020/12/16 06:18:39;;;;;;;14.65;8.83;;;;;;;7.41;51.82;101753.67;1734038;80;21935;-77
2020/12/16 06:21:09;;;;;;;11.08;7.78;;;;;;;7.42;51.81;101756.70;1740147;79;21092;-77
2020/12/16 06:23:45;;;;;;;12.70;7.58;;;;;;;7.43;51.78;101767.25;1741734;79;21491;-77
2020/12/16 06:26:19;;;;;;;9.43;6.72;;;;;;;7.44;51.74;101763.62;1746643;79;21383;-77
2020/12/16 06:28:47;;;;;;;13.38;7.67;;;;;;;7.46;51.64;101768.38;1742939;79;21578;-76
2020/12/16 06:31:26;;;;;;;11.55;7.33;;;;;;;7.46;51.68;101766.20;1737377;80;21137;-76
2020/12/16 06:34:04;;;;;;;11.73;7.95;;;;;;;7.43;51.86;101768.59;1747814;79;21100;-78
2020/12/16 06:36:40;;;;;;;13.62;8.65;;;;;;;7.44;51.98;101767.62;1759085;79;21099;-77
2020/12/16 06:39:22;;;;;;;12.82;8.30;;;;;;;7.43;51.96;101768.59;1734065;81;22562;-79
2020/12/16 06:42:00;;;;;;;16.62;10.08;;;;;;;7.42;51.81;101765.55;1764283;79;21160;-79
2020/12/16 06:44:45;;;;;;;19.10;11.25;;;;;;;7.41;51.87;101772.33;1756449;79;21154;-80
2020/12/16 06:47:24;;;;;;;15.55;9.08;;;;;;;7.42;51.87;101782.03;1729774;79;21107;-80
2020/12/16 06:49:52;;;;;;;11.45;7.62;;;;;;;7.42;51.90;101784.70;1747713;79;21109;-77
2020/12/16 06:52:26;;;;;;;9.83;6.62;;;;;;;7.42;51.78;101788.21;1748274;79;21203;-77
2020/12/16 06:55:00;;;;;;;10.08;6.25;;;;;;;7.41;51.73;101790.51;1749344;79;21999;-81
2020/12/16 06:57:32;;;;;;;8.75;6.17;;;;;;;7.40;51.80;101788.77;1686297;79;21124;-78
2020/12/16 07:00:02;;;;;;;10.45;6.87;;;;;;;7.38;51.82;101785.38;1713483;81;21112;-78
2020/12/16 07:02:37;;;;;;;10.75;7.00;;;;;;;7.37;51.86;101783.67;1752243;79;21115;-80
2020/12/16 07:05:46;;;;;;;12.10;8.18;;;;;;;7.38;51.92;101791.55;1742733;79;21446;-78
2020/12/16 07:08:29;;;;;;;11.80;7.30;;;;;;;7.38;51.94;101792.04;1750593;79;21147;-78
2020/12/16 07:11:01;;;;;;;12.70;8.00;;;;;;;7.40;51.87;101799.44;1753141;79;21135;-79
2020/12/16 07:13:32;;;;;;;11.97;8.33;;;;;;;7.36;51.80;101795.30;1744098;79;21116;-79
2020/12/16 07:16:05;;;;;;;11.18;7.47;;;;;;;7.34;51.79;101794.05;1744575;79;21144;-77
2020/12/16 07:18:43;;;;;;;11.18;7.55;;;;;;;7.31;51.75;101798.28;1760575;79;21372;-78
2020/12/16 07:21:17;;;;;;;13.70;8.23;;;;;;;7.27;51.76;101795.93;1742307;79;21136;-78
2020/12/16 07:24:00;;;;;;;10.63;7.58;;;;;;;7.22;51.91;101806.02;1744077;79;21101;-77
2020/12/16 07:26:35;;;;;;;7.90;4.97;;;;;;;7.20;51.92;101807.95;1746916;79;21124;-80
2020/12/16 07:29:36;;;;;;;10.40;6.12;;;;;;;7.16;51.92;101806.45;1750816;79;21603;-77
2020/12/16 07:32:09;;;;;;;11.28;7.65;;;;;;;7.14;51.96;101811.03;1743788;81;21213;-78
2020/12/16 07:34:57;;;;;;;14.35;8.13;;;;;;;7.11;52.09;101816.92;1744850;81;21135;-80
2020/12/16 07:37:28;;;;;;;10.40;7.62;;;;;;;7.12;52.17;101817.30;1743822;79;21599;-79
2020/12/16 07:40:02;;;;;;;11.95;8.33;;;;;;;7.15;52.21;101814.92;1745712;79;20985;-80
2020/12/16 07:42:33;;;;;;;9.73;7.15;;;;;;;7.16;52.14;101814.44;1738999;81;21401;-80
2020/12/16 07:45:08;;;;;;;13.15;8.65;;;;;;;7.17;52.12;101818.80;1720362;81;22139;-80
2020/12/16 07:47:37;;;;;;;13.05;8.10;;;;;;;7.16;52.14;101815.77;1745979;79;21163;-80
2020/12/16 07:50:10;;;;;;;15.78;10.03;;;;;;;7.17;52.15;101814.80;1751402;79;21445;-81
2020/12/16 07:52:38;;;;;;;16.55;11.43;;;;;;;7.15;52.19;101817.58;1743346;81;21123;-80
2020/12/16 07:55:06;;;;;;;16.48;10.93;;;;;;;7.14;52.10;101826.55;1745425;81;21095;-78
2020/12/16 07:57:39;;;;;;;12.68;9.23;;;;;;;7.10;52.20;101825.03;1747274;79;22043;-80
2020/12/16 08:00:16;;;;;;;11.80;7.12;;;;;;;7.11;52.21;101822.26;1758435;81;21117;-79
2020/12/16 08:02:44;;;;;;;12.98;8.83;;;;;;;7.14;52.25;101823.87;1743449;79;21143;-80
2020/12/16 08:05:14;;;;;;;15.35;10.50;;;;;;;7.18;52.29;101823.20;1749949;81;21289;-81
2020/12/16 08:07:46;;;;;;;15.40;10.65;;;;;;;7.18;52.39;101823.20;1748368;79;21202;-82
2020/12/16 08:10:28;;;;;;;15.95;9.80;;;;;;;7.22;52.37;101813.56;1878720;75;23074;-81
2020/12/16 08:12:58;;;;;;;14.23;9.65;;;;;;;7.17;52.32;101820.14;1829286;77;21616;-78
2020/12/16 08:15:29;;;;;;;14.38;9.08;;;;;;;7.06;52.32;101824.38;1832311;77;21729;-78
2020/12/16 08:17:59;;;;;;;15.75;10.28;;;;;;;7.00;52.59;101822.61;1837213;77;21193;-77
2020/12/16 08:20:29;;;;;;;12.80;8.98;;;;;;;6.98;52.71;101823.17;1832905;76;21453;-77
2020/12/16 08:23:02;;;;;;;12.63;8.13;;;;;;;7.00;52.72;101821.28;1835781;76;21190;-81
2020/12/16 08:25:27;;;;;;;12.20;6.92;;;;;;;7.01;52.67;101821.17;1838400;76;21181;-81
2020/12/16 08:28:04;;;;;;;12.95;9.05;;;;;;;7.03;52.61;101821.05;1757193;80;21237;-79
2020/12/16 08:30:32;;;;;;;13.80;9.70;;;;;;;7.04;52.73;101814.77;1766825;79;21680;-79
2020/12/16 08:33:06;;;;;;;15.90;10.35;;;;;;;7.10;52.76;101815.70;1776381;79;21200;-81
2020/12/16 08:35:50;;;;;;;19.48;12.43;;;;;;;7.15;52.71;101819.40;1764824;79;21066;-79
2020/12/16 08:38:27;;;;;;;14.07;9.75;;;;;;;7.17;52.61;101809.48;1772406;79;21216;-77
2020/12/16 08:40:58;;;;;;;18.85;11.10;;;;;;;7.20;52.52;101808.80;1776899;79;22192;-80
2020/12/16 08:43:35;;;;;;;18.80;10.38;;;;;;;7.22;52.44;101807.35;1784573;79;21174;-78
2020/12/16 08:46:15;;;;;;;15.20;9.95;;;;;;;7.20;52.32;101810.61;1778586;79;21101;-74
2020/12/16 08:48:56;;;;;;;16.17;11.53;;;;;;;7.20;52.22;101814.13;1773511;79;21101;-78
2020/12/16 08:51:52;;;;;;;16.82;12.03;;;;;;;7.18;52.22;101808.06;1769935;78;21086;-80
2020/12/16 08:54:37;;;;;;;16.37;11.45;;;;;;;7.34;51.88;101805.20;1754614;78;21118;-77
2020/12/16 08:57:05;;;;;;;21.48;13.58;;;;;;;7.34;51.82;101807.86;1770159;79;21159;-78
2020/12/16 08:59:36;;;;;;;18.45;12.33;;;;;;;7.33;51.80;101810.16;1766440;80;21899;-80
2020/12/16 09:02:08;;;;;;;17.55;11.45;;;;;;;7.34;51.78;101805.20;1773169;79;21156;-77
2020/12/16 09:04:40;;;;;;;16.87;12.05;;;;;;;7.35;51.86;101810.41;1779715;79;21495;-78
2020/12/16 09:07:12;;;;;;;19.40;13.13;;;;;;;7.39;51.88;101809.73;1780340;79;21441;-77
2020/12/16 09:09:50;;;;;;;24.20;13.32;;;;;;;7.42;51.82;101800.69;1771422;79;21124;-78
2020/12/16 09:12:19;;;;;;;49.08;20.52;;;;;;;7.45;51.78;101806.67;1763991;79;21152;-77
2020/12/16 09:14:53;;;;;;;53.42;23.80;;;;;;;7.46;51.77;101800.86;1769649;79;21106;-76
2020/12/16 09:17:27;;;;;;;76.70;28.15;;;;;;;7.45;51.88;101808.00;1764163;80;21098;-77
2020/12/16 09:19:55;;;;;;;119.97;36.98;;;;;;;7.46;51.89;101809.70;1763174;79;21372;-78
2020/12/16 09:22:29;;;;;;;105.17;32.15;;;;;;;7.50;51.59;101808.53;1738195;81;21569;-78
2020/12/16 09:25:01;;;;;;;37.17;19.05;;;;;;;7.42;51.60;101806.02;1785153;79;21158;-79
2020/12/16 09:27:29;;;;;;;22.80;13.08;;;;;;;7.33;51.73;101804.83;1744427;80;21150;-78
2020/12/16 09:29:57;;;;;;;22.75;14.60;;;;;;;7.15;52.14;101802.93;1780657;79;21098;-78
2020/12/16 09:32:25;;;;;;;28.77;17.70;;;;;;;7.10;52.34;101805.05;1759907;80;22145;-79
2020/12/16 09:34:57;;;;;;;27.62;16.62;;;;;;;7.09;52.44;101804.20;1748373;80;21681;-79
2020/12/16 09:37:32;;;;;;;18.25;11.90;;;;;;;7.08;52.62;101799.80;1757943;79;21624;-79
2020/12/16 09:40:11;;;;;;;17.12;11.95;;;;;;;7.09;52.63;101802.02;1740479;80;21622;-78
2020/12/16 09:42:39;;;;;;;16.15;10.65;;;;;;;7.09;52.60;101802.87;1765454;80;21110;-80
2020/12/16 09:45:15;;;;;;;20.65;13.32;;;;;;;7.09;52.53;101797.54;1746669;80;21383;-82
2020/12/16 09:47:44;;;;;;;24.35;14.87;;;;;;;7.08;52.60;101793.14;1762204;79;21169;-79
2020/12/16 09:50:20;;;;;;;63.65;23.87;;;;;;;7.06;52.67;101792.41;1755813;79;21129;-78
2020/12/16 09:53:03;;;;;;;68.55;24.82;;;;;;;7.10;52.59;101796.58;1755183;79;21169;-78
2020/12/16 09:55:44;;;;;;;68.85;23.73;;;;;;;7.00;52.73;101790.64;1780614;79;21616;-79
2020/12/16 09:58:18;;;;;;;48.42;19.98;;;;;;;6.89;52.92;101788.67;1763812;80;21202;-78
2020/12/16 10:00:46;;;;;;;61.95;25.43;;;;;;;6.80;53.15;101794.12;1821431;77;21161;-78
2020/12/16 10:03:18;;;;;;;64.77;27.30;;;;;;;6.80;53.49;101793.28;1821587;77;21196;-77
2020/12/16 10:05:47;;;;;;;55.03;22.70;;;;;;;6.82;53.50;101794.05;1782584;79;21121;-79
2020/12/16 10:08:18;;;;;;;37.30;17.02;;;;;;;6.98;53.12;101789.39;1794057;78;21105;-78
2020/12/16 10:10:50;;;;;;;39.63;18.75;;;;;;;6.90;53.02;101788.20;1763125;79;22323;-78
2020/12/16 10:13:22;;;;;;;28.77;15.85;;;;;;;6.65;53.60;101784.50;1787817;79;21126;-79
2020/12/16 10:15:50;;;;;;;24.00;13.72;;;;;;;6.51;53.96;101792.05;1792472;79;21129;-78
2020/12/16 10:18:18;;;;;;;24.82;14.85;;;;;;;6.47;54.19;101787.02;1756108;79;21127;-78
2020/12/16 10:20:46;;;;;;;24.60;14.15;;;;;;;6.45;54.14;101780.48;1782652;79;21098;-79
2020/12/16 10:23:16;;;;;;;42.95;21.85;;;;;;;6.54;54.17;101780.33;1756458;80;21430;-77
2020/12/16 10:25:46;;;;;;;54.25;29.15;;;;;;;6.47;54.11;101778.56;1758064;79;21174;-79
2020/12/16 10:28:17;;;;;;;62.67;31.23;;;;;;;6.39;54.29;101780.86;1755675;80;21516;-78
2020/12/16 10:30:46;;;;;;;29.20;17.45;;;;;;;6.36;54.36;101777.08;1772009;79;21137;-78
2020/12/16 10:33:14;;;;;;;30.82;18.15;;;;;;;6.31;54.51;101781.38;1825797;77;21096;-80
2020/12/16 10:35:45;;;;;;;22.35;13.95;;;;;;;6.30;54.47;101784.11;1788321;78;21264;-79
2020/12/16 10:38:13;;;;;;;25.70;15.63;;;;;;;6.22;54.77;101782.41;1785740;79;21213;-78
2020/12/16 10:40:42;;;;;;;22.32;13.25;;;;;;;6.24;54.76;101775.20;1784639;79;21134;-78
2020/12/16 10:43:10;;;;;;;18.80;12.33;;;;;;;6.20;54.81;101773.68;1782195;78;21172;-77
2020/12/16 10:45:38;;;;;;;20.92;14.28;;;;;;;6.18;54.92;101779.59;1786549;79;21082;-78
2020/12/16 10:48:06;;;;;;;18.23;10.72;;;;;;;6.10;55.08;101776.92;1786770;79;21358;-79
2020/12/16 10:50:34;;;;;;;19.65;12.60;;;;;;;6.10;55.23;101770.76;1782346;79;21172;-77
2020/12/16 10:53:02;;;;;;;19.40;12.47;;;;;;;6.06;55.28;101766.58;1783923;79;21161;-78
2020/12/16 10:55:32;;;;;;;19.57;12.13;;;;;;;6.06;55.51;101766.58;1785417;78;21094;-79
2020/12/16 10:58:00;;;;;;;19.85;10.85;;;;;;;6.20;55.31;101766.55;1786312;78;21139;-80
2020/12/16 11:00:29;;;;;;;20.23;11.97;;;;;;;6.12;55.46;101763.52;1786044;78;21382;-79
2020/12/16 11:02:56;;;;;;;22.42;14.65;;;;;;;6.11;55.55;101760.48;1783196;78;21131;-78
2020/12/16 11:05:24;;;;;;;26.35;15.88;;;;;;;6.13;55.66;101756.39;1787500;78;21123;-80
2020/12/16 11:07:52;;;;;;;23.02;14.90;;;;;;;6.24;55.62;101751.25;1787508;79;21113;-79
2020/12/16 11:10:20;;;;;;;25.15;14.65;;;;;;;6.44;55.41;101749.95;1784532;79;21117;-78
2020/12/16 11:12:48;;;;;;;23.52;13.38;;;;;;;6.57;55.00;101743.73;1788919;79;21465;-78
2020/12/16 11:15:16;;;;;;;25.75;13.30;;;;;;;6.64;54.91;101745.52;1793437;79;21173;-78
2020/12/16 11:17:44;;;;;;;28.67;13.03;;;;;;;6.71;54.79;101741.96;1791845;79;21674;-78
2020/12/16 11:20:16;;;;;;;19.62;10.72;;;;;;;6.61;54.93;101749.71;1786701;78;21121;-78
2020/12/16 11:22:54;;;;;;;16.37;10.10;;;;;;;6.69;54.49;101749.22;1787293;79;23717;-79
2020/12/16 11:25:25;;;;;;;18.75;11.55;;;;;;;6.57;54.44;101741.06;1763416;79;21233;-80
2020/12/16 11:27:53;;;;;;;18.00;10.55;;;;;;;6.47;54.52;101752.42;1741842;80;21352;-79
2020/12/16 11:30:22;;;;;;;14.47;9.15;;;;;;;6.35;54.67;101754.06;1762441;79;21834;-80
2020/12/16 11:32:53;;;;;;;17.25;10.18;;;;;;;6.27;54.85;101753.25;1765134;79;21549;-78
2020/12/16 11:35:21;;;;;;;15.70;9.35;;;;;;;6.17;55.01;101755.25;1772418;78;21201;-79
2020/12/16 11:37:50;;;;;;;19.95;10.78;;;;;;;6.02;55.35;101755.27;1781951;79;21205;-78
2020/12/16 11:40:23;;;;;;;16.23;10.10;;;;;;;6.03;55.50;101753.46;1779981;79;21733;-79
2020/12/16 11:42:53;;;;;;;18.05;11.30;;;;;;;6.08;55.48;101751.36;1775306;78;21252;-79
2020/12/16 11:45:21;;;;;;;17.90;11.95;;;;;;;6.10;55.65;101752.98;1781390;78;21215;-81